Aérodrome :







RETROUVEZ-NOUS SUR...

 
LOGIN :

S'inscrire | Disclaimer

   EN    FR    IT 

 









Légende :    VFR   VFR Marginal   IFR   IFR Intensif   IFR Très Intensif
Visi : 
Plafond : 
>= 8 km
>= 3000ft
5 à 8 km
1000 à 3000 ft
1500m à 5 km
500 à 1000 ft
800 à 1500m
200 à 500 ft
< 800m
< 200 ft
Symboles :   Orages  Brouillard  Fortes neiges  Fortes précipitations  Vent > 20 kt






- Altitude de l'aérodrome : 171 ft
- Code IATA : KEF


BIKF - Keflavik International

DERNIER METAR :
  • 020700Z 01022KT 9999 -SN BKN019 M02/M04 Q1015

METARs EXPIRÉS :
  • 020630Z 36021KT 9999 BKN020 M02/M05 Q1014
  • 020600Z 36023KT 9999 VCSH BKN019 BKN250 M02/M05 Q1014 RESN
  • 020530Z 36026KT 9999 BKN020 M02/M05 Q1013
  • 020500Z 36024KT 9999 BKN020 M02/M06 Q1014
  • 020430Z 35021KT 9999 BKN024 M02/M06 Q1014

TAF TAF BIKF
Valide du 02 à 06h jusqu'au 03 à 06h UTC


020403Z 0206/0306 34028G38KT 9999 SCT012 BKN023 TX00/0215Z TNM06/0303Z
BECMG 0206/0208 04022G32KT
BECMG 0213/0215 03018KT CAVOK
BECMG 0222/0300 03008KT



MET'MAP, la Météo Aéronautique d'un coup d'oeil ! - Copyright ORBIFLY Décembre 2007 - Disclaimer

ORBIFLY MET'MAP TEAM :

Programmation & Développement : Alexandra Zaïnal
Sur une idée originale de : Baudouin d'Aumeries
Assistance à la programmation : Marc-Olivier Méhu
Soutien technique & logistique : Manuel Goepfert

Contact : metmap@orbifly.com




SOURCES & CREDITS :

   NOAA